createdAt,value
2016-12-14T00:00:01.068Z,93.61
2016-12-14T00:01:12.386Z,93.23
2016-12-14T00:02:23.956Z,93.04
2016-12-14T00:03:35.473Z,93.13
2016-12-14T00:04:47.025Z,93.51
2016-12-14T00:05:58.215Z,93.99
2016-12-14T00:07:11.219Z,93.89
2016-12-14T00:08:22.409Z,93.32
2016-12-14T00:09:33.997Z,93.23
2016-12-14T00:10:45.731Z,93.04
2016-12-14T00:11:57.423Z,92.85
2016-12-14T00:13:09.281Z,93.41
2016-12-14T00:14:21.119Z,94.08
2016-12-14T00:15:32.537Z,93.61
2016-12-14T00:16:44.193Z,93.8
2016-12-14T00:17:56.106Z,93.61
2016-12-14T00:19:08.169Z,94.74
2016-12-14T00:20:20.605Z,95.03
2016-12-14T00:21:33.574Z,94.56
2016-12-14T00:22:45.004Z,94.65
2016-12-14T00:23:56.248Z,94.65
2016-12-14T00:25:07.788Z,93.7
2016-12-14T00:26:19.285Z,94.08
2016-12-14T00:27:32.041Z,93.61
2016-12-14T00:28:43.568Z,93.65
2016-12-14T00:29:54.750Z,93.65
2016-12-14T00:31:06.092Z,93.7
2016-12-14T00:32:17.292Z,93.51
2016-12-14T00:33:29.001Z,93.7
2016-12-14T00:34:40.721Z,93.32
2016-12-14T00:35:53.400Z,92.85
2016-12-14T00:37:04.552Z,93.61
2016-12-14T00:38:15.730Z,94.18
2016-12-14T00:39:27.205Z,93.7
2016-12-14T00:40:38.625Z,93.32
2016-12-14T00:41:50.196Z,93.89
2016-12-14T00:43:01.400Z,93.8
2016-12-14T00:44:12.569Z,93.41
2016-12-14T00:45:23.765Z,94.18
2016-12-14T00:46:35.602Z,94.18
2016-12-14T00:47:46.787Z,94.37
2016-12-14T00:48:58.657Z,93.61
2016-12-14T00:50:11.582Z,93.8
2016-12-14T00:51:22.822Z,93.7
2016-12-14T00:52:35.488Z,94.08
2016-12-14T00:53:49.089Z,93.51
2016-12-14T00:55:00.502Z,93.8
2016-12-14T00:56:11.719Z,93.51
2016-12-14T00:57:22.901Z,93.61
2016-12-14T00:58:34.355Z,93.23
2016-12-14T00:59:45.542Z,93.13
2016-12-14T01:00:56.905Z,92.8
2016-12-14T01:02:08.161Z,92.47
2016-12-14T01:03:19.969Z,92.47
2016-12-14T01:04:32.811Z,92.52
2016-12-14T01:05:53.101Z,92.61
2016-12-14T01:07:04.247Z,91.85
2016-12-14T01:08:15.456Z,92.04
2016-12-14T01:09:26.645Z,91.94
2016-12-14T01:10:37.747Z,92.14
2016-12-14T01:11:48.997Z,91.75
2016-12-14T01:13:01.073Z,92.14
2016-12-14T01:14:12.613Z,92.04
2016-12-14T01:15:24.224Z,92.04
2016-12-14T01:16:35.447Z,91.94
2016-12-14T01:17:46.582Z,91.94
2016-12-14T01:18:57.951Z,92.14
2016-12-14T01:20:09.418Z,91.09
2016-12-14T01:21:22.390Z,91.47
2016-12-14T01:22:33.539Z,91.47
2016-12-14T01:23:44.753Z,91.38
2016-12-14T01:24:56.155Z,91.19
2016-12-14T01:26:08.792Z,91.09
2016-12-14T01:27:20.302Z,91.09
2016-12-14T01:28:31.460Z,91.38
2016-12-14T01:29:42.596Z,91.19
2016-12-14T01:30:54.011Z,91.38
2016-12-14T01:32:05.488Z,91.66
2016-12-14T01:33:18.459Z,91.09
2016-12-14T01:34:35.293Z,91.28
2016-12-14T01:35:48.546Z,91.75
2016-12-14T01:37:04.560Z,91.28
2016-12-14T01:38:19.696Z,91.38
2016-12-14T01:39:33.994Z,91.28
2016-12-14T01:40:49.997Z,92.04
2016-12-14T01:42:02.824Z,91.94
2016-12-14T01:43:14.263Z,91.47
2016-12-14T01:44:25.452Z,91.75
2016-12-14T01:45:36.875Z,91.56
2016-12-14T01:46:48.425Z,91.66
2016-12-14T01:47:59.925Z,91.47
2016-12-14T01:49:11.656Z,91.85
2016-12-14T01:50:22.804Z,92.57
2016-12-14T01:51:35.280Z,92.23
2016-12-14T01:52:49.335Z,92.14
2016-12-14T01:54:00.473Z,92.23
2016-12-14T01:55:12.149Z,92.94
2016-12-14T01:56:23.324Z,93.13
2016-12-14T01:57:35.132Z,92.76
2016-12-14T01:58:46.316Z,93.13
2016-12-14T01:59:57.932Z,92.66
2016-12-14T02:01:09.447Z,92.76
2016-12-14T02:02:20.851Z,92.76
2016-12-14T02:03:32.013Z,92.85
2016-12-14T02:04:44.505Z,92.71
2016-12-14T02:05:56.974Z,92.66
2016-12-14T02:07:08.422Z,92.76
2016-12-14T02:08:21.847Z,92.47
2016-12-14T02:09:32.985Z,92.71
2016-12-14T02:10:44.735Z,91.94
2016-12-14T02:11:56.437Z,91.85
2016-12-14T02:13:08.359Z,91.56
2016-12-14T02:14:19.492Z,91.28
2016-12-14T02:15:30.709Z,91.66
2016-12-14T02:16:42.490Z,91.28
2016-12-14T02:17:54.053Z,91.47
2016-12-14T02:19:05.677Z,90.71
2016-12-14T02:20:16.781Z,91.19
2016-12-14T02:21:29.172Z,91.66
2016-12-14T02:22:40.357Z,91
2016-12-14T02:23:52.137Z,91.09
2016-12-14T02:25:03.514Z,91.09
2016-12-14T02:26:14.897Z,91.09
2016-12-14T02:27:26.045Z,90.52
2016-12-14T02:28:38.747Z,90.33
2016-12-14T02:29:49.940Z,90.43
2016-12-14T02:31:01.310Z,90.24
2016-12-14T02:32:27.507Z,90.52
2016-12-14T02:33:38.988Z,89.67
2016-12-14T02:34:50.216Z,89.58
2016-12-14T02:36:01.349Z,90.05
2016-12-14T02:37:12.802Z,90.05
2016-12-14T02:38:24.173Z,90.14
2016-12-14T02:39:35.334Z,90.33
2016-12-14T02:40:48.257Z,90.62
2016-12-14T11:04:51.589Z,81.54
2016-12-14T11:09:44.237Z,81.29
2016-12-14T11:11:10.964Z,81.38
2016-12-14T11:12:22.944Z,81.01
2016-12-14T11:13:35.293Z,80.82
2016-12-14T11:14:47.311Z,80.82
2016-12-14T11:15:59.258Z,81.01
2016-12-14T11:17:11.362Z,81.29
2016-12-14T11:18:23.373Z,80.34
2016-12-14T11:19:35.911Z,81.01
2016-12-14T11:20:48.505Z,80.44
2016-12-14T11:22:00.572Z,80.34
2016-12-14T11:23:12.284Z,80.82
2016-12-14T11:24:23.971Z,80.05
2016-12-14T11:25:36.212Z,79.86
2016-12-14T11:26:48.003Z,79.96
2016-12-14T11:27:59.698Z,79.77
2016-12-14T11:29:11.605Z,79.58
2016-12-14T11:30:23.392Z,79.68
2016-12-14T11:31:35.827Z,79.58
2016-12-14T11:32:47.666Z,79.58
2016-12-14T11:33:59.345Z,79.2
2016-12-14T11:35:11.714Z,79.68
2016-12-14T11:36:24.022Z,79.11
2016-12-14T11:37:36.254Z,79.68
2016-12-14T11:38:48.101Z,80.05
2016-12-14T11:40:00.255Z,79.91
2016-12-14T11:41:13.637Z,79.86
2016-12-14T11:42:26.324Z,80.15
2016-12-14T11:43:38.463Z,80.72
2016-12-14T11:44:50.549Z,81.01
2016-12-14T11:46:02.299Z,81.29
2016-12-14T11:47:14.086Z,82.15
2016-12-14T11:48:25.973Z,82.62
2016-12-14T11:49:38.125Z,82.49
2016-12-14T11:50:50.927Z,82.34
2016-12-14T11:52:03.195Z,81.96
2016-12-14T11:53:16.501Z,82.05
2016-12-14T11:54:28.246Z,81.86
2016-12-14T11:55:40.347Z,82.24
2016-12-14T11:56:52.385Z,82.15
2016-12-14T11:58:04.232Z,82.24
2016-12-14T11:59:16.250Z,82.62
2016-12-14T12:00:27.941Z,82.43
2016-12-14T12:01:41.352Z,82.15
2016-12-14T12:02:53.312Z,81.96
2016-12-14T12:04:05.111Z,81.58
2016-12-14T12:05:17.188Z,81.38
2016-12-14T12:06:29.170Z,81.58
2016-12-14T12:07:41.070Z,80.72
2016-12-14T12:08:54.666Z,80.82
2016-12-14T12:10:08.351Z,81.01
2016-12-14T12:11:20.451Z,80.72
2016-12-14T12:12:32.275Z,80
2016-12-14T12:13:44.054Z,80
2016-12-14T12:14:57.222Z,79.91
2016-12-14T12:16:09.283Z,81.01
2016-12-14T12:17:20.860Z,80.44
2016-12-14T12:18:32.645Z,79.96
2016-12-14T12:19:46.141Z,80.1
2016-12-14T12:20:58.385Z,80
2016-12-14T12:22:10.118Z,79.72
2016-12-14T12:23:24.727Z,79.52
2016-12-14T12:24:37.681Z,79.43
2016-12-14T12:25:50.585Z,79.43
2016-12-14T12:27:02.567Z,78.96
2016-12-14T12:28:14.678Z,79.24
2016-12-14T12:29:26.753Z,78.67
2016-12-14T12:30:38.916Z,78.48
2016-12-14T12:31:51.104Z,78.96
2016-12-14T12:33:03.320Z,79.05
2016-12-14T12:34:15.137Z,78.96
2016-12-14T12:35:27.673Z,78.96
2016-12-14T12:36:40.288Z,78.38
2016-12-14T12:37:52.761Z,77.85
2016-12-14T12:39:04.809Z,77.91
2016-12-14T12:40:16.961Z,77.62
2016-12-14T12:41:29.760Z,77.43
2016-12-14T12:42:42.359Z,77.62
2016-12-14T12:45:33.508Z,78
2016-12-14T12:46:45.321Z,77.53
2016-12-14T12:47:58.741Z,77.43
2016-12-14T12:49:10.805Z,77.81
2016-12-14T12:50:24.165Z,77.53
2016-12-14T12:51:39.323Z,77.62
2016-12-14T12:52:53.574Z,77.91
2016-12-14T12:54:20.124Z,77.72
2016-12-14T12:55:35.912Z,77.72
2016-12-14T12:56:52.371Z,77.91
2016-12-14T12:58:04.363Z,78.48
2016-12-14T12:59:18.653Z,78.77
2016-12-14T13:00:33.958Z,77.81
2016-12-14T13:01:48.330Z,77.81
2016-12-14T13:03:06.626Z,77.81
2016-12-14T13:04:18.688Z,77.81
2016-12-14T13:05:31.645Z,77.62
2016-12-14T13:06:43.616Z,77.91
2016-12-14T13:07:57.901Z,78.67
2016-12-14T13:09:11.037Z,78.48
2016-12-14T13:10:23.433Z,77.81
2016-12-14T13:11:35.142Z,78.38
2016-12-14T13:12:47.179Z,78.38
2016-12-14T13:13:59.192Z,79.33
2016-12-14T13:15:11.628Z,78.77
2016-12-14T13:16:23.877Z,78.67
2016-12-14T13:17:36.378Z,79.05
2016-12-14T13:18:49.349Z,79.05
2016-12-14T13:20:01.677Z,79.05
2016-12-14T13:21:13.693Z,79.24
2016-12-14T13:22:26.292Z,79.05
2016-12-14T13:23:38.007Z,78.96
2016-12-14T13:24:49.931Z,78.77
2016-12-14T13:26:02.586Z,78.38
2016-12-14T13:27:15.881Z,78.77
2016-12-14T13:28:28.055Z,79.05
2016-12-14T13:29:40.131Z,79.05
2016-12-14T13:30:52.605Z,79.14
2016-12-14T13:32:04.645Z,79.14
2016-12-14T13:33:16.645Z,79.52
2016-12-14T13:34:29.200Z,79.91
2016-12-14T13:35:41.634Z,80.1
2016-12-14T13:36:53.552Z,80.38
2016-12-14T13:38:06.857Z,80.19
2016-12-14T13:39:24.782Z,80
2016-12-14T13:40:36.792Z,80.29
2016-12-14T13:41:48.704Z,80.19
2016-12-14T13:43:00.758Z,80.29
2016-12-14T13:44:13.098Z,80.1
2016-12-14T13:45:25.032Z,80.38
2016-12-14T13:46:51.707Z,80.1
2016-12-14T13:48:04.340Z,80.19
2016-12-14T13:49:17.371Z,80.38
2016-12-14T13:50:29.245Z,80.57
2016-12-14T13:51:42.720Z,80.66
2016-12-14T13:52:54.463Z,80.57
2016-12-14T13:54:06.459Z,80.38
2016-12-14T13:55:18.381Z,80
2016-12-14T13:56:31.357Z,80.1
2016-12-14T13:57:43.141Z,80.19
2016-12-14T13:58:55.122Z,80
2016-12-14T14:00:07.008Z,79.72
2016-12-14T14:02:46.712Z,79.91
2016-12-14T14:03:59.628Z,79.81
2016-12-14T14:05:11.906Z,80.38
2016-12-14T14:06:23.698Z,81.05
2016-12-14T14:07:35.625Z,81.38
2016-12-14T14:08:47.371Z,81.77
2016-12-14T14:10:00.021Z,81.77
2016-12-14T14:11:12.056Z,81.77
2016-12-14T14:12:24.258Z,81.96
2016-12-14T14:13:36.308Z,81.86
2016-12-14T14:14:48.183Z,81.96
2016-12-14T14:16:00.164Z,81.96
2016-12-14T14:17:40.674Z,82.15
2016-12-14T14:18:52.883Z,81.96
2016-12-14T14:20:04.798Z,81.86
2016-12-14T14:21:17.022Z,81.96
2016-12-14T14:22:28.982Z,82.05
2016-12-14T14:23:41.449Z,82.15
2016-12-14T14:24:53.470Z,82.05
2016-12-14T14:26:05.817Z,81.86
2016-12-14T14:27:17.956Z,81.43
2016-12-14T14:28:29.718Z,81.67
2016-12-14T14:29:42.478Z,82.05
2016-12-14T14:30:56.531Z,82.15
2016-12-14T14:32:08.759Z,82.24
2016-12-14T14:33:20.600Z,82.62
2016-12-14T14:34:32.690Z,82.24
2016-12-14T14:35:44.663Z,82.34
2016-12-14T14:36:56.954Z,82.53
2016-12-14T14:38:09.360Z,83
2016-12-14T14:39:21.407Z,82.34
2016-12-14T14:40:33.122Z,82.91
2016-12-14T14:41:45.618Z,82.71
2016-12-14T14:42:58.027Z,82.81
2016-12-14T14:44:10.102Z,83.67
2016-12-14T14:45:22.134Z,83.19
2016-12-14T14:46:34.100Z,82.91
2016-12-14T14:47:45.730Z,83.1
2016-12-14T14:48:58.206Z,83.29
2016-12-14T14:50:09.932Z,83.58
2016-12-14T14:51:21.727Z,82.62
2016-12-14T14:52:34.037Z,82.71
2016-12-14T14:53:45.839Z,83.19
2016-12-14T14:55:00.325Z,83
2016-12-14T14:56:12.107Z,82.71
2016-12-14T14:57:23.841Z,82.81
2016-12-14T14:58:35.839Z,83.39
2016-12-14T14:59:47.517Z,83.67
2016-12-14T15:00:59.843Z,83.58
2016-12-14T15:02:11.953Z,84.24
2016-12-14T15:03:23.734Z,84.14
2016-12-14T15:04:35.451Z,83.95
2016-12-14T15:05:47.916Z,83.95
2016-12-14T15:07:00.267Z,84.05
2016-12-14T15:08:12.738Z,83.95
2016-12-14T15:09:24.611Z,83.95
2016-12-14T15:10:36.551Z,84.43
2016-12-14T15:12:06.429Z,84.24
2016-12-14T15:13:18.474Z,84.33
2016-12-14T15:14:30.688Z,84.52
2016-12-14T15:15:42.433Z,84.72
2016-12-14T15:16:54.216Z,84.91
2016-12-14T15:18:06.035Z,84.33
2016-12-14T15:19:18.835Z,84.91
2016-12-14T15:20:30.458Z,84.81
2016-12-14T15:21:42.416Z,84.81
2016-12-14T15:22:54.088Z,85.72
2016-12-14T15:24:06.192Z,85.24
2016-12-14T15:25:18.165Z,85.43
2016-12-14T15:26:29.965Z,85.19
2016-12-14T15:27:42.481Z,85.43
2016-12-14T15:28:54.826Z,85.57
2016-12-14T15:30:07.523Z,85.05
2016-12-14T15:31:19.742Z,85.19
2016-12-14T15:32:31.340Z,85.19
2016-12-14T15:33:44.370Z,85
2016-12-14T15:34:56.942Z,84.43
2016-12-14T15:36:09.855Z,85.1
2016-12-14T15:37:25.079Z,85
2016-12-14T15:38:48.365Z,84.81
2016-12-14T15:40:03.797Z,84.52
2016-12-14T15:41:15.524Z,84.62
2016-12-14T15:42:27.820Z,85
2016-12-14T15:43:40.274Z,84.14
2016-12-14T15:44:52.245Z,84.43
2016-12-14T15:46:03.937Z,84.91
2016-12-14T15:47:15.960Z,84.33
2016-12-14T15:48:27.875Z,84.24
2016-12-14T15:49:40.793Z,84.62
2016-12-14T15:50:53.357Z,87.19
2016-12-14T15:52:05.823Z,86.9
2016-12-14T15:53:18.417Z,85.14
2016-12-14T15:54:30.694Z,84.19
2016-12-14T15:55:43.394Z,84.28
2016-12-14T15:56:55.559Z,83.48
2016-12-14T15:58:07.817Z,84.05
2016-12-14T15:59:20.092Z,83.95
2016-12-14T16:00:32.382Z,83.95
2016-12-14T16:01:44.783Z,83.86
2016-12-14T16:02:56.545Z,83.76
2016-12-14T16:04:09.625Z,84.33
2016-12-14T16:05:24.254Z,84.72
2016-12-14T16:06:36.550Z,84.62
2016-12-14T16:07:48.578Z,85.19
2016-12-14T16:09:01.026Z,85.1
2016-12-14T16:10:15.296Z,85.47
2016-12-14T16:11:27.466Z,85.28
2016-12-14T16:12:39.592Z,85.66
2016-12-14T16:13:51.668Z,85.76
2016-12-14T16:15:03.510Z,85.47
2016-12-14T16:16:15.509Z,85.19
2016-12-14T16:17:29.060Z,85.47
2016-12-14T16:18:41.473Z,85.47
2016-12-14T16:19:54.725Z,85.47
2016-12-14T16:21:14.427Z,85.19
2016-12-14T16:34:12.148Z,85.47
2016-12-14T16:35:24.569Z,85.66
2016-12-14T16:36:36.651Z,85.95
2016-12-14T16:37:49.301Z,85.72
2016-12-14T16:39:01.281Z,86.19
2016-12-14T16:40:13.117Z,86.24
2016-12-14T16:41:25.743Z,85.76
2016-12-14T16:42:37.652Z,86.05
2016-12-14T16:43:49.741Z,85.95
2016-12-14T16:45:02.014Z,85.86
2016-12-14T16:46:14.207Z,86.14
2016-12-14T16:47:27.084Z,85.86
2016-12-14T16:48:39.494Z,85.95
2016-12-14T16:49:51.560Z,85.95
2016-12-14T16:51:03.362Z,86.52
2016-12-14T16:52:15.067Z,85.95
2016-12-14T16:53:27.877Z,86.14
2016-12-14T16:54:40.587Z,86.47
2016-12-14T16:55:52.939Z,86.71
2016-12-14T16:57:05.233Z,86.24
2016-12-14T16:58:17.457Z,86.14
2016-12-14T16:59:29.569Z,86.24
2016-12-14T17:00:41.718Z,85.86
2016-12-14T17:01:54.012Z,86.05
2016-12-14T17:03:06.800Z,85.86
2016-12-14T17:04:19.076Z,85.47
2016-12-14T17:05:31.529Z,85.86
2016-12-14T17:06:58.141Z,85.19
2016-12-14T17:08:09.972Z,85.66
2016-12-14T17:09:21.773Z,85.57
2016-12-14T17:10:33.828Z,85.57
2016-12-14T17:11:45.876Z,85.66
2016-12-14T17:12:57.816Z,85.57
2016-12-14T17:14:09.520Z,85.38
2016-12-14T17:15:22.156Z,85.47
2016-12-14T17:16:33.958Z,84.81
2016-12-14T17:17:49.711Z,84.91
2016-12-14T17:19:04.786Z,85.1
2016-12-14T17:20:19.766Z,85
2016-12-14T17:21:34.740Z,85.19
2016-12-14T17:22:50.821Z,85
2016-12-14T17:24:06.574Z,84.91
2016-12-14T17:25:22.699Z,84.62
2016-12-14T17:27:11.847Z,85.1
2016-12-14T17:28:27.104Z,85.28
2016-12-14T17:29:46.435Z,84.62
2016-12-14T17:31:01.207Z,84.43
2016-12-14T17:32:54.388Z,85
2016-12-14T17:34:09.463Z,84.72
2016-12-14T17:35:26.398Z,84.33
2016-12-14T17:36:40.807Z,84.52
2016-12-14T17:37:55.513Z,84.33
2016-12-14T17:39:11.060Z,84.05
2016-12-14T17:40:25.763Z,84.24
2016-12-14T17:41:41.143Z,83.95
2016-12-14T17:42:55.671Z,84
2016-12-14T17:44:10.421Z,83.95
2016-12-14T17:45:25.356Z,84.05
2016-12-14T17:46:40.911Z,84.14
2016-12-14T17:47:55.933Z,83.86
2016-12-14T17:49:11.515Z,84.33
2016-12-14T17:50:26.556Z,84
2016-12-14T17:51:42.012Z,83.76
2016-12-14T17:52:57.301Z,83.48
2016-12-14T17:54:26.745Z,83.39
2016-12-14T17:55:43.250Z,83.71
2016-12-14T17:56:58.732Z,83.39
2016-12-14T17:58:13.997Z,83.67
2016-12-14T17:59:28.962Z,83.76
2016-12-14T18:00:43.577Z,83.48
2016-12-14T18:01:59.225Z,83.48
2016-12-14T18:03:14.100Z,83.48
2016-12-14T18:06:00.670Z,83.39
2016-12-14T18:07:15.476Z,83.42
2016-12-14T18:08:30.784Z,83.39
2016-12-14T18:09:46.117Z,83.19
2016-12-14T18:11:00.996Z,83.14
2016-12-14T18:12:15.676Z,83.67
2016-12-14T18:13:30.525Z,83.67
2016-12-14T18:14:45.121Z,83.29
2016-12-14T18:15:59.453Z,83.58
2016-12-14T18:17:14.516Z,83.67
2016-12-14T18:18:29.432Z,83.76
2016-12-14T18:19:43.756Z,83.29
2016-12-14T18:20:58.721Z,83.48
2016-12-14T18:22:13.420Z,83.67
2016-12-14T18:23:28.192Z,83.39
2016-12-14T18:24:43.158Z,83.48
2016-12-14T18:25:57.612Z,83.23
2016-12-14T18:27:12.646Z,82.86
2016-12-14T18:28:27.617Z,82.62
2016-12-14T18:29:42.143Z,82.48
2016-12-14T18:30:56.650Z,82.67
2016-12-14T18:32:11.414Z,82.57
2016-12-14T18:33:26.341Z,82.48
2016-12-14T18:34:42.068Z,82.53
2016-12-14T18:35:57.772Z,82.91
2016-12-14T18:37:13.184Z,83.23
2016-12-14T18:38:28.751Z,83.71
2016-12-14T18:39:43.940Z,83.67
2016-12-14T18:40:58.800Z,83.81
2016-12-14T18:42:14.123Z,83.52
2016-12-14T18:43:28.650Z,83.71
2016-12-14T18:44:43.944Z,83.42
2016-12-14T18:45:59.335Z,83.71
2016-12-14T18:47:15.619Z,83.71
2016-12-14T18:48:31.087Z,83.42
2016-12-14T18:49:46.081Z,83.42
2016-12-14T18:51:00.767Z,83.42
2016-12-14T18:52:15.194Z,83.62
2016-12-14T18:53:33.023Z,83.62
2016-12-14T18:54:47.762Z,83.52
2016-12-14T18:56:03.256Z,83.14
2016-12-14T18:57:17.707Z,83.14
2016-12-14T18:58:32.217Z,82.95
2016-12-14T18:59:47.882Z,83.14
2016-12-14T19:01:03.488Z,82.38
2016-12-14T19:02:18.471Z,82.57
2016-12-14T19:03:33.511Z,82.67
2016-12-14T19:04:49.272Z,82.57
2016-12-14T19:06:04.486Z,82.95
2016-12-14T19:07:20.576Z,82.43
2016-12-14T19:08:35.477Z,82.67
2016-12-14T19:09:51.004Z,83.23
2016-12-14T19:11:05.835Z,82.38
2016-12-14T19:12:21.790Z,82.38
2016-12-14T19:13:37.267Z,83.23
2016-12-14T19:14:55.301Z,82.95
2016-12-14T19:16:11.135Z,82.86
2016-12-14T19:17:25.604Z,83.04
2016-12-14T19:18:41.387Z,82.86
2016-12-14T19:19:56.590Z,83.33
2016-12-14T19:21:12.480Z,82.95
2016-12-14T19:22:31.760Z,82.95
2016-12-14T19:23:48.848Z,82.86
2016-12-14T19:25:19.835Z,82.76
2016-12-14T19:26:34.323Z,82.48
2016-12-14T19:27:49.565Z,82.38
2016-12-14T19:29:04.878Z,82.19
2016-12-14T19:30:19.890Z,82
2016-12-14T19:31:36.272Z,82.09
2016-12-14T19:32:52.248Z,82.67
2016-12-14T19:34:08.588Z,82.67
2016-12-14T19:35:24.948Z,82.86
2016-12-14T19:36:39.931Z,82.67
2016-12-14T19:37:56.583Z,82.38
2016-12-14T19:39:13.162Z,83.14
2016-12-14T19:40:28.209Z,83.04
2016-12-14T19:41:44.590Z,82.95
2016-12-14T19:42:59.223Z,82.76
2016-12-14T19:44:14.935Z,82.57
2016-12-14T19:45:29.844Z,82.57
2016-12-14T19:47:11.670Z,82.38
2016-12-14T19:48:27.555Z,82.67
2016-12-14T19:49:43.735Z,82.38
2016-12-14T19:51:15.674Z,83.04
2016-12-14T19:52:34.490Z,83.04
2016-12-14T19:54:08.333Z,82.62
2016-12-14T19:55:25.553Z,83.04
2016-12-14T19:56:41.616Z,83.39
2016-12-14T19:57:57.162Z,83.39
2016-12-14T19:59:13.140Z,83.58
2016-12-14T20:00:29.180Z,83.76
2016-12-14T20:01:48.899Z,84.14
2016-12-14T20:03:19.456Z,83.76
2016-12-14T20:05:04.379Z,83.76
2016-12-14T20:06:21.216Z,83.76
2016-12-14T20:07:37.042Z,83.19
2016-12-14T20:08:52.485Z,83
2016-12-14T20:10:09.680Z,82.91
2016-12-14T20:11:25.331Z,82.91
2016-12-14T20:12:41.316Z,82.53
2016-12-14T20:14:00.034Z,82.53
2016-12-14T20:15:29.822Z,82.34
2016-12-14T20:16:46.219Z,82.43
2016-12-14T20:18:02.422Z,83.1
2016-12-14T20:19:17.231Z,83.19
2016-12-14T20:24:37.390Z,84.24
2016-12-14T20:26:12.330Z,84.24
2016-12-14T20:27:45.986Z,84.48
2016-12-14T20:29:20.566Z,84.58
2016-12-14T20:30:55.764Z,84.14
2016-12-14T20:32:29.634Z,84.33
2016-12-14T20:34:03.221Z,84.72
2016-12-14T20:35:56.230Z,84.81
2016-12-14T20:37:31.117Z,84.91
2016-12-14T20:39:06.812Z,84.33
2016-12-14T20:40:42.011Z,84.91
2016-12-14T20:42:16.883Z,84.91
2016-12-14T20:43:51.655Z,84.62
2016-12-14T20:45:47.094Z,84.81
2016-12-14T20:47:22.488Z,84.24
2016-12-14T20:48:57.319Z,84.62
2016-12-14T20:50:31.581Z,83.86
2016-12-14T20:52:27.981Z,84.05
2016-12-14T20:54:06.769Z,84.05
2016-12-14T20:55:36.812Z,84.33
2016-12-14T20:57:11.620Z,84.14
2016-12-14T20:58:46.372Z,84.33
2016-12-14T21:00:20.767Z,84.72
2016-12-14T21:01:54.661Z,84.62
2016-12-14T21:03:28.625Z,84.62
2016-12-14T21:05:02.555Z,84.72
2016-12-14T21:06:55.805Z,84.72
2016-12-14T21:08:30.262Z,84.91
2016-12-14T21:10:04.467Z,85.19
2016-12-14T21:11:38.502Z,85.1
2016-12-14T21:13:13.495Z,85.19
2016-12-14T21:14:50.581Z,85.76
2016-12-14T21:16:43.480Z,86.52
2016-12-14T21:18:18.522Z,86.24
2016-12-14T21:19:52.502Z,86.33
2016-12-14T21:21:27.318Z,86.33
2016-12-14T21:23:01.636Z,86.24
2016-12-14T21:24:36.231Z,85.95
2016-12-14T21:26:10.947Z,85.86
2016-12-14T21:27:45.158Z,85.76
2016-12-14T21:29:38.885Z,85.86
2016-12-14T21:31:13.202Z,85.76
2016-12-14T21:32:47.544Z,85.66
2016-12-14T21:34:22.566Z,85.28
2016-12-14T21:35:56.923Z,85.47
2016-12-14T21:37:30.820Z,85.47
2016-12-14T21:39:04.938Z,85.19
2016-12-14T21:40:34.213Z,85.1
2016-12-14T21:42:08.520Z,85
2016-12-14T21:43:42.306Z,85.19
2016-12-14T21:45:16.774Z,85
2016-12-14T21:46:50.510Z,85.38
2016-12-14T21:48:25.236Z,85.24
2016-12-14T21:49:53.789Z,85.19
2016-12-14T21:51:27.737Z,85.28
2016-12-14T21:53:01.705Z,85.1
2016-12-14T21:54:33.832Z,84.81
2016-12-14T21:56:07.585Z,85.19
2016-12-14T21:57:41.679Z,85.47
2016-12-14T21:59:15.285Z,85.19
2016-12-14T22:01:08.400Z,85.1
2016-12-14T22:02:43.193Z,84.72
2016-12-14T22:04:18.316Z,85.1
2016-12-14T22:05:51.727Z,85.52
2016-12-14T22:07:21.573Z,85.19
2016-12-14T22:08:55.586Z,84.85
2016-12-14T22:10:29.711Z,85.04
2016-12-14T22:12:03.411Z,84.95
2016-12-14T22:13:36.844Z,85.71
2016-12-14T22:15:10.458Z,85.52
2016-12-14T22:16:39.690Z,85.47
2016-12-14T22:18:13.326Z,85.47
2016-12-14T22:19:46.759Z,85.9
2016-12-14T22:21:20.609Z,86.33
2016-12-14T22:22:54.396Z,85.66
2016-12-14T22:24:28.290Z,85.66
2016-12-14T22:26:02.099Z,85.61
2016-12-14T22:27:35.706Z,85.61
2016-12-14T22:29:09.630Z,85.71
2016-12-14T22:30:43.441Z,85.71
2016-12-14T22:32:17.088Z,85.71
2016-12-14T22:33:51.173Z,85.52
2016-12-14T22:35:25.001Z,85.66
2016-12-14T22:37:17.561Z,85.76
2016-12-14T22:38:51.243Z,85.95
2016-12-14T22:40:25.309Z,86.33
2016-12-14T22:41:59.047Z,85.19
2016-12-14T22:43:32.535Z,85.76
2016-12-14T22:45:06.685Z,85.66
2016-12-14T22:46:40.589Z,85.66
2016-12-14T22:48:14.369Z,85.66
2016-12-14T22:49:48.695Z,85.76
2016-12-14T22:51:22.986Z,85.57
2016-12-14T22:52:56.613Z,85.66
2016-12-14T22:54:30.631Z,85.66
2016-12-14T22:56:26.345Z,86.05
2016-12-14T22:57:59.668Z,86.24
2016-12-14T22:59:33.852Z,86.61
2016-12-14T23:01:07.387Z,87.57
2016-12-14T23:02:40.954Z,86.71
2016-12-14T23:04:14.393Z,86.71
2016-12-14T23:05:47.735Z,86.24
2016-12-14T23:07:21.445Z,86.61
2016-12-14T23:08:55.868Z,86.8
2016-12-14T23:10:29.411Z,86.99
2016-12-14T23:12:03.259Z,86.61
2016-12-14T23:13:37.670Z,87.38
2016-12-14T23:15:30.663Z,87.19
2016-12-14T23:17:05.926Z,87.66
2016-12-14T23:18:41.634Z,87.66
2016-12-14T23:20:15.502Z,87.57
2016-12-14T23:21:49.373Z,87.57
2016-12-14T23:23:23.145Z,87.57
2016-12-14T23:24:57.180Z,87.38
2016-12-14T23:26:33.442Z,87.76
2016-12-14T23:28:07.930Z,87.57
2016-12-14T23:29:41.584Z,87.66
2016-12-14T23:31:35.000Z,87.57
2016-12-14T23:33:12.499Z,87.95
2016-12-14T23:34:46.353Z,87.66
2016-12-14T23:36:20.547Z,87.28
2016-12-14T23:37:54.669Z,87.19
2016-12-14T23:39:28.698Z,87.09
2016-12-14T23:41:03.243Z,87.19
2016-12-14T23:42:31.902Z,87.19
2016-12-14T23:44:06.603Z,87.47
2016-12-14T23:45:40.733Z,87.38
2016-12-14T23:47:14.511Z,87.76
2016-12-14T23:49:08.417Z,87.57
2016-12-14T23:50:44.667Z,87.66
2016-12-14T23:52:18.594Z,86.9
2016-12-14T23:53:52.114Z,86.99
2016-12-14T23:55:26.559Z,87.09
2016-12-14T23:57:00.380Z,86.99
2016-12-14T23:58:33.912Z,86.8
